Time;durP1;ratioP1;P1;durP2;ratioP2;P2;SDS_P1;SDS_P2;PMS_P1;PMS_P2;Temp;Humidity;BMP_temperature;BMP_pressure;BME280_temperature;BME280_humidity;BME280_pressure;Samples;Min_cycle;Max_cycle;Signal;HPM_P1;HPM_P2
2023/03/05 00:02:35;;;;;;;20.00;8.60;;;0.30;99.90;;;;;;4406378;28;656575;-68
2023/03/05 00:05:23;;;;;;;26.53;9.53;;;0.30;99.90;;;;;;4438650;28;656510;-68
2023/03/05 00:08:10;;;;;;;20.80;9.07;;;0.30;99.90;;;;;;4416317;28;656673;-68
2023/03/05 00:10:58;;;;;;;19.23;9.03;;;0.30;99.90;;;;;;4419390;28;658080;-67
2023/03/05 00:13:45;;;;;;;27.83;8.90;;;0.30;99.90;;;;;;4413570;28;657286;-67
2023/03/05 00:16:34;;;;;;;20.20;8.93;;;0.20;99.90;;;;;;4425578;28;656742;-68
2023/03/05 00:19:21;;;;;;;23.83;8.57;;;0.20;99.90;;;;;;4411748;28;657153;-68
2023/03/05 00:22:08;;;;;;;25.83;9.10;;;0.20;99.90;;;;;;4427603;28;657496;-67
2023/03/05 00:24:55;;;;;;;29.00;9.53;;;0.20;99.90;;;;;;4406233;28;656498;-67
2023/03/05 00:27:43;;;;;;;24.27;8.53;;;0.20;99.90;;;;;;4427893;28;658451;-68
2023/03/05 00:30:31;;;;;;;18.87;8.20;;;0.20;99.90;;;;;;4406221;28;656227;-67
2023/03/05 00:33:19;;;;;;;24.27;9.13;;;0.20;99.90;;;;;;4421103;28;656917;-67
2023/03/05 00:36:08;;;;;;;24.93;8.87;;;0.20;99.90;;;;;;4402822;28;656390;-68
2023/03/05 00:38:55;;;;;;;23.47;8.83;;;0.20;99.90;;;;;;4415541;28;657136;-68
2023/03/05 00:41:42;;;;;;;22.80;8.90;;;0.30;99.90;;;;;;4423573;28;657821;-68
2023/03/05 00:44:30;;;;;;;22.00;7.77;;;0.30;99.90;;;;;;4424117;28;657279;-68
2023/03/05 00:47:18;;;;;;;15.23;6.93;;;0.30;99.90;;;;;;4425157;28;656382;-67
2023/03/05 00:50:08;;;;;;;14.47;5.63;;;0.20;99.90;;;;;;4412926;28;656495;-68
2023/03/05 00:52:55;;;;;;;11.17;4.13;;;0.20;99.90;;;;;;4401469;28;658373;-68
2023/03/05 00:55:43;;;;;;;11.60;4.00;;;0.10;99.90;;;;;;4426861;28;659161;-68
2023/03/05 00:58:30;;;;;;;12.77;3.93;;;0.00;99.90;;;;;;4420443;28;657890;-68
2023/03/05 01:01:17;;;;;;;10.60;3.80;;;0.00;99.90;;;;;;4413298;28;659236;-67
2023/03/05 01:04:05;;;;;;;9.80;3.27;;;-0.10;99.90;;;;;;4422689;28;657816;-68
2023/03/05 01:06:54;;;;;;;12.00;3.47;;;-0.10;99.90;;;;;;4421731;28;659537;-68
2023/03/05 01:09:41;;;;;;;11.70;3.47;;;-0.20;99.90;;;;;;4404387;28;658363;-68
2023/03/05 01:12:28;;;;;;;9.97;3.23;;;-0.30;99.90;;;;;;4420262;28;659500;-68
2023/03/05 01:15:16;;;;;;;10.27;3.40;;;-0.30;99.90;;;;;;4406802;28;657582;-68
2023/03/05 01:18:03;;;;;;;14.33;3.77;;;-0.30;99.90;;;;;;4426430;28;659059;-68
2023/03/05 01:20:50;;;;;;;13.77;4.23;;;-0.30;99.90;;;;;;4401287;28;662595;-67
2023/03/05 01:23:39;;;;;;;10.37;4.10;;;-0.30;99.90;;;;;;4421131;28;659712;-68
2023/03/05 01:26:26;;;;;;;10.63;3.77;;;-0.30;99.90;;;;;;4401364;28;658485;-68
2023/03/05 01:29:13;;;;;;;13.47;3.97;;;-0.30;99.90;;;;;;4424965;28;659588;-68
2023/03/05 01:32:01;;;;;;;13.60;4.60;;;-0.20;99.90;;;;;;4401007;28;659064;-67
2023/03/05 01:34:48;;;;;;;11.63;4.00;;;-0.20;99.90;;;;;;4425215;28;658820;-68
2023/03/05 01:37:36;;;;;;;19.63;5.03;;;-0.20;99.90;;;;;;4391859;28;658562;-67
2023/03/05 01:40:27;;;;;;;15.97;4.47;;;-0.30;99.90;;;;;;4426584;28;658683;-68
2023/03/05 01:43:23;;;;;;;15.63;5.30;;;-0.30;99.90;;;;;;4397220;28;658750;-68
2023/03/05 01:46:34;;;;;;;13.97;4.83;;;-0.30;99.90;;;;;;4392557;28;658075;-67
2023/03/05 01:49:23;;;;;;;14.63;5.60;;;-0.30;99.90;;;;;;4383647;28;659261;-68
2023/03/05 01:52:12;;;;;;;18.08;5.28;;;-0.30;99.90;;;;;;4403992;28;658168;-67
2023/03/05 01:55:01;;;;;;;16.73;5.83;;;-0.30;99.90;;;;;;4414208;28;659477;-68
2023/03/05 01:57:51;;;;;;;16.37;5.57;;;-0.30;99.90;;;;;;4396745;28;660118;-68
2023/03/05 02:00:41;;;;;;;15.50;4.93;;;-0.30;99.90;;;;;;4393767;28;659785;-68
2023/03/05 02:03:28;;;;;;;10.83;4.60;;;-0.30;99.90;;;;;;4403854;28;658752;-68
2023/03/05 02:06:15;;;;;;;13.43;4.80;;;-0.30;99.90;;;;;;4403041;28;659309;-68
2023/03/05 02:09:02;;;;;;;10.37;4.17;;;-0.40;99.90;;;;;;4424788;28;659255;-68
2023/03/05 02:11:50;;;;;;;17.77;4.67;;;-0.40;99.90;;;;;;4407263;28;659163;-67
2023/03/05 02:14:39;;;;;;;16.97;4.37;;;-0.40;99.90;;;;;;4430149;28;660241;-68
2023/03/05 02:17:27;;;;;;;15.40;4.60;;;-0.40;99.90;;;;;;4399353;28;658693;-68
2023/03/05 02:20:16;;;;;;;12.07;4.20;;;-0.50;99.90;;;;;;4422691;28;658516;-68
2023/03/05 02:23:04;;;;;;;14.47;4.73;;;-0.50;99.90;;;;;;4398455;28;659110;-68
2023/03/05 02:25:52;;;;;;;11.43;4.60;;;-0.50;99.90;;;;;;4407279;28;659471;-67
2023/03/05 02:28:40;;;;;;;15.33;5.47;;;-0.50;99.90;;;;;;4403698;28;658644;-68
2023/03/05 02:31:27;;;;;;;12.67;4.63;;;-0.50;99.90;;;;;;4396816;28;658751;-68
2023/03/05 02:34:14;;;;;;;15.00;4.60;;;-0.50;99.90;;;;;;4419368;28;658523;-68
2023/03/05 02:37:03;;;;;;;15.60;4.43;;;-0.50;99.90;;;;;;4403796;28;659051;-68
2023/03/05 02:39:52;;;;;;;10.70;4.00;;;-0.50;99.90;;;;;;4400583;28;658557;-68
2023/03/05 02:42:39;;;;;;;13.47;4.23;;;-0.60;99.90;;;;;;4428386;28;659941;-68
2023/03/05 02:45:26;;;;;;;10.85;4.18;;;-0.50;99.90;;;;;;4400096;28;659026;-67
2023/03/05 02:48:13;;;;;;;13.03;4.20;;;-0.60;99.90;;;;;;4419314;28;659473;-68
2023/03/05 02:51:01;;;;;;;12.93;4.37;;;-0.60;99.90;;;;;;4407610;28;658758;-68
2023/03/05 02:53:48;;;;;;;12.80;4.30;;;-0.60;99.90;;;;;;4420806;28;659844;-68
2023/03/05 02:56:38;;;;;;;13.60;4.50;;;-0.70;99.90;;;;;;4403583;28;658521;-67
2023/03/05 02:59:25;;;;;;;16.88;5.32;;;-0.70;99.90;;;;;;4403565;28;658672;-68
2023/03/05 03:02:12;;;;;;;10.70;3.70;;;-0.70;99.90;;;;;;4417844;28;660444;-67
2023/03/05 03:05:01;;;;;;;10.30;4.23;;;-0.70;99.90;;;;;;4416475;28;658755;-68
2023/03/05 03:07:49;;;;;;;12.63;4.43;;;-0.70;99.90;;;;;;4421016;28;658228;-68
2023/03/05 03:10:36;;;;;;;10.60;3.70;;;-0.70;99.90;;;;;;4408118;28;658803;-68
2023/03/05 03:13:25;;;;;;;10.00;3.70;;;-0.70;99.90;;;;;;4425798;28;658290;-67
2023/03/05 03:16:13;;;;;;;12.25;3.47;;;-0.60;99.90;;;;;;4405575;28;659074;-68
2023/03/05 03:19:01;;;;;;;7.83;2.80;;;-0.60;99.90;;;;;;4396685;28;658862;-67
2023/03/05 03:21:49;;;;;;;8.93;3.23;;;-0.70;99.90;;;;;;4428788;28;658768;-68
2023/03/05 03:24:37;;;;;;;9.77;3.47;;;-0.70;99.90;;;;;;4331138;28;657510;-67
2023/03/05 03:27:24;;;;;;;10.80;2.77;;;-0.70;99.90;;;;;;4248185;28;657732;-67
2023/03/05 03:30:14;;;;;;;6.73;2.30;;;-0.80;99.90;;;;;;4231304;28;658508;-67
2023/03/05 03:33:01;;;;;;;9.67;2.87;;;-0.80;99.90;;;;;;4403011;28;657730;-67
2023/03/05 03:35:48;;;;;;;6.37;2.10;;;-0.80;99.90;;;;;;4426372;28;658489;-68
2023/03/05 03:38:35;;;;;;;8.98;2.72;;;-0.90;99.90;;;;;;4391508;28;657732;-67
2023/03/05 03:41:22;;;;;;;11.40;2.37;;;-0.90;99.90;;;;;;4422989;28;658445;-68
2023/03/05 03:44:10;;;;;;;7.63;2.23;;;-0.90;99.90;;;;;;4424848;28;659418;-67
2023/03/05 03:46:59;;;;;;;10.10;2.80;;;-0.90;99.90;;;;;;4424056;28;658376;-68
2023/03/05 03:49:46;;;;;;;7.23;2.40;;;-0.80;99.90;;;;;;4404614;28;658397;-67
2023/03/05 03:52:33;;;;;;;9.27;2.30;;;-0.80;99.90;;;;;;4426704;28;658644;-68
2023/03/05 03:55:21;;;;;;;5.60;2.20;;;-0.80;99.90;;;;;;4399304;28;658061;-68
2023/03/05 03:58:08;;;;;;;6.27;2.73;;;-0.80;99.90;;;;;;4432601;28;658683;-67
2023/03/05 04:00:55;;;;;;;5.47;2.20;;;-0.80;99.90;;;;;;4399155;28;657590;-67
2023/03/05 04:03:44;;;;;;;6.87;2.60;;;-0.90;99.90;;;;;;4428356;28;657871;-68
2023/03/05 04:06:31;;;;;;;9.00;2.90;;;-0.90;99.90;;;;;;4402080;28;657705;-68
2023/03/05 04:09:18;;;;;;;10.17;2.67;;;-1.00;99.90;;;;;;4424860;28;658918;-68
2023/03/05 04:12:06;;;;;;;7.57;2.53;;;-1.00;99.90;;;;;;4406089;28;658660;-68
2023/03/05 04:14:53;;;;;;;5.55;2.40;;;-0.90;99.90;;;;;;4427465;28;658471;-68
2023/03/05 04:17:40;;;;;;;5.53;2.23;;;-0.90;99.90;;;;;;4392599;28;657808;-68
2023/03/05 04:20:29;;;;;;;8.10;2.63;;;-0.80;99.90;;;;;;4425919;28;659005;-68
2023/03/05 04:23:17;;;;;;;8.87;2.90;;;-0.80;99.90;;;;;;4401043;28;657532;-67
2023/03/05 04:26:04;;;;;;;11.20;4.50;;;-0.80;99.90;;;;;;4429450;28;658447;-67
2023/03/05 04:28:51;;;;;;;13.10;4.97;;;-0.80;99.90;;;;;;4405607;28;658535;-68
2023/03/05 04:31:39;;;;;;;13.20;4.90;;;-0.90;99.90;;;;;;4424267;28;658430;-68
2023/03/05 04:34:26;;;;;;;14.07;5.13;;;-1.00;99.90;;;;;;4395802;28;659143;-67
2023/03/05 04:37:14;;;;;;;12.33;4.90;;;-1.00;99.90;;;;;;4420167;28;659635;-68
2023/03/05 04:40:03;;;;;;;12.40;4.90;;;-1.00;99.90;;;;;;4388841;28;659538;-68
2023/03/05 04:42:50;;;;;;;17.07;5.47;;;-0.90;99.90;;;;;;4399828;28;658711;-67
2023/03/05 04:45:39;;;;;;;15.40;5.63;;;-0.90;99.90;;;;;;4427177;28;659257;-68
2023/03/05 04:48:26;;;;;;;19.70;6.10;;;-1.00;99.90;;;;;;4402897;28;658460;-68
2023/03/05 04:51:14;;;;;;;17.87;5.00;;;-1.00;99.90;;;;;;4417455;28;660164;-68
2023/03/05 04:54:02;;;;;;;15.17;4.90;;;-0.90;99.90;;;;;;4400915;28;658783;-67
2023/03/05 04:56:49;;;;;;;12.60;5.27;;;-1.00;99.90;;;;;;4408285;28;658461;-68
2023/03/05 04:59:37;;;;;;;13.67;4.50;;;-1.00;99.90;;;;;;4401412;28;659334;-68
2023/03/05 05:02:24;;;;;;;15.40;5.13;;;-1.10;99.90;;;;;;4420752;28;658194;-68
2023/03/05 05:05:13;;;;;;;10.83;4.03;;;-1.10;99.90;;;;;;4398896;28;658246;-68
2023/03/05 05:08:00;;;;;;;13.90;5.17;;;-1.10;99.90;;;;;;4416590;28;658450;-68
2023/03/05 05:10:57;;;;;;;11.53;4.80;;;-1.20;99.90;;;;;;4424592;28;658981;-68
2023/03/05 05:13:44;;;;;;;16.33;4.32;;;-1.40;99.90;;;;;;4383121;28;658788;-68
2023/03/05 05:16:32;;;;;;;10.83;4.27;;;-1.40;99.90;;;;;;4398919;28;660094;-68
2023/03/05 05:19:19;;;;;;;10.10;3.83;;;-1.40;99.90;;;;;;4421682;28;660208;-68
2023/03/05 05:22:06;;;;;;;10.93;3.83;;;-1.40;99.90;;;;;;4399281;28;659146;-68
2023/03/05 05:24:54;;;;;;;9.83;3.53;;;-1.50;99.90;;;;;;4419645;28;659383;-68
2023/03/05 05:27:42;;;;;;;10.13;3.30;;;-1.50;99.90;;;;;;4401804;28;658279;-67
2023/03/05 05:30:29;;;;;;;11.50;3.43;;;-1.50;99.90;;;;;;4413073;28;658411;-68
2023/03/05 05:33:17;;;;;;;10.20;3.47;;;-1.40;99.90;;;;;;4401527;28;658918;-68
2023/03/05 05:36:04;;;;;;;10.40;3.40;;;-1.40;99.90;;;;;;4422394;28;659080;-68
2023/03/05 05:38:52;;;;;;;9.13;3.43;;;-1.40;99.90;;;;;;4402917;28;658839;-68
2023/03/05 05:41:39;;;;;;;14.33;4.43;;;-1.40;99.90;;;;;;4424300;28;657773;-68
2023/03/05 05:44:27;;;;;;;12.57;4.03;;;-1.40;99.90;;;;;;4403249;28;658986;-70
2023/03/05 05:47:15;;;;;;;9.83;3.83;;;-1.40;99.90;;;;;;4407518;28;658304;-67
2023/03/05 05:50:02;;;;;;;11.93;4.40;;;-1.50;99.90;;;;;;4425099;28;659103;-68
2023/03/05 05:52:51;;;;;;;12.13;4.20;;;-1.50;99.90;;;;;;4424148;28;658828;-67
2023/03/05 05:55:40;;;;;;;11.83;4.27;;;-1.50;99.90;;;;;;4420467;28;659415;-67
2023/03/05 05:58:27;;;;;;;12.27;4.70;;;-1.60;99.90;;;;;;4403228;28;660542;-68
2023/03/05 06:01:17;;;;;;;11.30;5.00;;;-1.50;99.90;;;;;;4419170;28;659272;-67
2023/03/05 06:04:04;;;;;;;12.77;4.73;;;-1.50;99.90;;;;;;4401189;28;658560;-67
2023/03/05 06:06:51;;;;;;;13.70;5.13;;;-1.50;99.90;;;;;;4400905;28;658377;-67
2023/03/05 06:09:39;;;;;;;13.23;5.13;;;-1.60;99.90;;;;;;4429315;28;660014;-68
2023/03/05 06:12:26;;;;;;;14.97;5.83;;;-1.70;99.90;;;;;;4407862;28;658578;-67
2023/03/05 06:15:13;;;;;;;23.23;7.80;;;-1.60;99.90;;;;;;4426537;28;659228;-68
2023/03/05 06:18:02;;;;;;;20.43;7.50;;;-1.50;99.90;;;;;;4406343;28;658890;-68
2023/03/05 06:20:54;;;;;;;27.67;8.60;;;-1.40;99.90;;;;;;4407788;28;659171;-67
2023/03/05 06:23:41;;;;;;;27.43;9.93;;;-1.40;99.90;;;;;;4376789;28;659198;-68
2023/03/05 06:26:29;;;;;;;24.00;9.30;;;-1.30;99.90;;;;;;4425031;28;659327;-67
2023/03/05 06:29:16;;;;;;;19.33;8.13;;;-1.30;99.90;;;;;;4408574;28;660063;-67
2023/03/05 06:32:04;;;;;;;21.77;8.57;;;-1.30;99.90;;;;;;4426986;28;658961;-68
2023/03/05 06:34:52;;;;;;;22.20;9.67;;;-1.40;99.90;;;;;;4404273;28;659414;-67
2023/03/05 06:37:40;;;;;;;27.13;11.20;;;-1.40;99.90;;;;;;4415445;28;658441;-68
2023/03/05 06:40:27;;;;;;;30.97;13.70;;;-1.30;99.90;;;;;;4428736;28;659750;-67
2023/03/05 06:43:15;;;;;;;25.77;11.50;;;-1.30;1.00;;;;;;4415191;28;660336;-68
2023/03/05 06:46:03;;;;;;;27.43;13.13;;;-1.20;24.10;;;;;;4416856;28;659241;-67
2023/03/05 06:48:50;;;;;;;29.87;12.73;;;-1.20;99.90;;;;;;4396671;28;659578;-67
2023/03/05 06:51:39;;;;;;;23.67;11.63;;;-1.20;99.90;;;;;;4421101;28;660645;-72
2023/03/05 06:54:27;;;;;;;31.37;12.83;;;-1.20;99.90;;;;;;4394019;28;660142;-72
2023/03/05 06:57:14;;;;;;;29.87;12.20;;;-1.20;1.00;;;;;;4428225;28;661089;-72
2023/03/05 07:00:02;;;;;;;29.40;13.53;;;-1.10;1.00;;;;;;4392500;28;658571;-72
2023/03/05 07:02:49;;;;;;;31.27;14.13;;;-1.00;99.90;;;;;;4422935;28;659099;-71
2023/03/05 07:05:38;;;;;;;28.07;12.47;;;-1.00;99.90;;;;;;4395915;28;659763;-72
2023/03/05 07:08:27;;;;;;;31.70;14.33;;;-0.90;99.90;;;;;;4407858;28;661087;-72
2023/03/05 07:11:15;;;;;;;38.90;16.63;;;-0.80;99.90;;;;;;4426499;28;658734;-72
2023/03/05 07:14:02;;;;;;;32.73;14.83;;;-0.90;99.90;;;;;;4395619;28;660500;-72
2023/03/05 07:16:50;;;;;;;40.43;15.87;;;-0.80;99.90;;;;;;4412414;28;660290;-72
2023/03/05 07:19:38;;;;;;;37.00;14.77;;;-0.80;99.90;;;;;;4395220;28;660523;-72
2023/03/05 07:22:25;;;;;;;35.87;16.40;;;-0.80;99.90;;;;;;4402909;28;659980;-71
2023/03/05 07:25:18;;;;;;;38.83;15.23;;;-0.70;99.90;;;;;;4424827;28;660525;-72
2023/03/05 07:28:05;;;;;;;31.93;13.40;;;-0.70;99.90;;;;;;4385711;28;659976;-72
2023/03/05 07:30:57;;;;;;;34.87;14.63;;;-0.60;99.90;;;;;;4419098;28;661242;-71
2023/03/05 07:33:45;;;;;;;40.73;15.53;;;-0.70;99.90;;;;;;4384851;28;659665;-72
2023/03/05 07:36:33;;;;;;;32.10;13.87;;;-0.70;99.90;;;;;;4396482;28;661051;-71
2023/03/05 07:39:20;;;;;;;30.07;12.27;;;-0.70;99.90;;;;;;4402457;28;660377;-71
2023/03/05 07:42:09;;;;;;;31.97;13.10;;;-0.60;99.90;;;;;;4420397;28;660975;-71
2023/03/05 07:44:56;;;;;;;24.63;11.23;;;-0.50;99.90;;;;;;4401061;28;659972;-71
2023/03/05 07:47:44;;;;;;;33.00;14.83;;;-0.40;99.90;;;;;;4419471;28;659549;-71
2023/03/05 07:50:32;;;;;;;32.10;13.73;;;-0.40;99.90;;;;;;4398894;28;660034;-71
2023/03/05 07:53:19;;;;;;;20.42;9.48;;;-0.30;99.90;;;;;;4412531;28;659098;-71
2023/03/05 07:56:07;;;;;;;30.40;13.23;;;-0.20;99.90;;;;;;4404526;28;658984;-71
2023/03/05 07:58:56;;;;;;;23.17;11.93;;;-0.20;99.90;;;;;;4416933;28;660201;-72
2023/03/05 08:01:43;;;;;;;24.00;10.53;;;-0.30;99.90;;;;;;4401707;28;660356;-71
2023/03/05 08:04:31;;;;;;;24.97;11.73;;;-0.40;99.90;;;;;;4399474;28;659495;-71
2023/03/05 08:07:18;;;;;;;30.20;12.27;;;-0.20;99.90;;;;;;4416401;28;659883;-71
2023/03/05 08:10:07;;;;;;;26.90;10.10;;;-0.30;99.90;;;;;;4401614;28;659907;-71
2023/03/05 08:12:54;;;;;;;30.07;12.90;;;-0.10;99.90;;;;;;4416932;28;659752;-70
2023/03/05 08:15:43;;;;;;;24.97;11.60;;;-0.10;99.90;;;;;;4403772;28;659823;-71
2023/03/05 08:18:30;;;;;;;31.67;12.75;;;-0.20;99.90;;;;;;4402818;28;659917;-71
2023/03/05 08:21:18;;;;;;;27.10;12.80;;;-0.20;99.90;;;;;;4424174;28;661465;-72
2023/03/05 08:24:07;;;;;;;27.10;13.17;;;0.00;99.90;;;;;;4390125;28;659693;-71
2023/03/05 08:26:54;;;;;;;27.97;11.07;;;0.10;99.90;;;;;;4417442;28;658802;-72
2023/03/05 08:29:41;;;;;;;30.43;14.17;;;0.20;99.90;;;;;;4400200;28;659629;-71
2023/03/05 08:32:30;;;;;;;34.37;16.03;;;-0.10;99.90;;;;;;4420301;28;660080;-72
2023/03/05 08:35:17;;;;;;;34.47;15.37;;;0.00;99.90;;;;;;4392187;28;660143;-72
2023/03/05 08:38:04;;;;;;;36.60;16.53;;;-0.10;99.90;;;;;;4425592;28;658182;-72
2023/03/05 08:40:51;;;;;;;34.70;15.60;;;-0.20;99.90;;;;;;4397789;28;660338;-72
2023/03/05 08:43:39;;;;;;;41.47;17.13;;;-0.20;99.90;;;;;;4418055;28;659944;-72
2023/03/05 08:46:26;;;;;;;30.87;15.30;;;0.10;99.90;;;;;;4382295;28;659929;-72
2023/03/05 08:49:15;;;;;;;41.27;19.83;;;0.20;99.90;;;;;;4415664;28;659713;-72
2023/03/05 08:52:02;;;;;;;38.07;16.43;;;0.20;99.90;;;;;;4387928;28;659878;-72
2023/03/05 08:54:49;;;;;;;37.97;19.10;;;0.20;99.90;;;;;;4419261;28;658652;-71
2023/03/05 08:57:36;;;;;;;41.80;19.87;;;0.30;99.90;;;;;;4399669;28;659195;-72
2023/03/05 09:00:24;;;;;;;38.37;16.33;;;0.30;99.90;;;;;;4428191;28;658819;-71
2023/03/05 09:03:11;;;;;;;35.10;15.43;;;0.40;99.90;;;;;;4399691;28;658510;-72
2023/03/05 09:06:04;;;;;;;35.73;15.57;;;0.50;99.90;;;;;;4425982;28;659788;-72
2023/03/05 09:08:51;;;;;;;42.77;17.83;;;0.50;99.90;;;;;;4402141;28;660310;-72
2023/03/05 09:11:39;;;;;;;38.23;16.60;;;0.50;99.90;;;;;;4425381;28;658975;-72
2023/03/05 09:14:27;;;;;;;35.50;15.83;;;0.30;99.90;;;;;;4405028;28;659090;-72
2023/03/05 09:17:14;;;;;;;42.40;18.30;;;0.30;99.90;;;;;;4427641;28;658447;-71
2023/03/05 09:20:01;;;;;;;45.83;18.40;;;0.50;99.90;;;;;;4404248;28;658925;-71
2023/03/05 09:22:50;;;;;;;33.17;13.27;;;0.40;99.90;;;;;;4414654;28;659366;-71
2023/03/05 09:25:39;;;;;;;34.50;13.93;;;0.50;99.90;;;;;;4409183;28;658853;-71
2023/03/05 09:28:27;;;;;;;37.77;15.07;;;0.30;99.90;;;;;;4409509;28;659150;-71
2023/03/05 09:31:14;;;;;;;32.83;14.43;;;0.40;99.90;;;;;;4429931;28;659517;-71
2023/03/05 09:34:01;;;;;;;32.77;13.93;;;0.20;99.90;;;;;;4311874;28;658661;-72
2023/03/05 09:36:49;;;;;;;39.50;17.20;;;0.40;99.90;;;;;;4248224;28;658979;-72
2023/03/05 09:39:37;;;;;;;29.53;13.33;;;0.60;99.90;;;;;;4249991;28;659351;-71
2023/03/05 09:42:31;;;;;;;35.73;16.23;;;0.60;99.90;;;;;;4427779;28;659280;-71
2023/03/05 09:45:21;;;;;;;35.67;14.13;;;0.50;99.90;;;;;;4410138;28;659936;-72
2023/03/05 09:48:13;;;;;;;32.73;15.30;;;0.60;99.90;;;;;;4411463;28;659084;-72
2023/03/05 09:51:01;;;;;;;31.23;12.27;;;0.60;99.90;;;;;;4416629;28;658700;-72
2023/03/05 09:53:50;;;;;;;33.67;16.23;;;0.70;99.90;;;;;;4414745;28;659462;-71
2023/03/05 09:56:40;;;;;;;36.30;16.73;;;0.70;99.90;;;;;;4402075;28;659892;-72
2023/03/05 09:59:30;;;;;;;35.63;14.83;;;0.70;99.90;;;;;;4394018;28;660502;-71
2023/03/05 10:02:20;;;;;;;42.00;17.80;;;0.60;99.90;;;;;;4404021;28;659530;-72
2023/03/05 10:05:13;;;;;;;32.63;14.90;;;0.60;99.90;;;;;;4391551;28;659984;-71
2023/03/05 10:08:01;;;;;;;37.53;16.60;;;0.60;99.90;;;;;;4425876;28;658606;-72
2023/03/05 10:10:49;;;;;;;36.20;14.50;;;0.60;99.90;;;;;;4425124;28;659131;-72
2023/03/05 10:13:39;;;;;;;33.27;15.10;;;0.60;99.90;;;;;;4409565;28;659441;-72
2023/03/05 10:16:47;;;;;;;30.33;14.70;;;0.80;99.90;;;;;;4399223;28;658772;-72
2023/03/05 10:19:53;;;;;;;44.50;17.80;;;0.60;99.90;;;;;;4405930;28;659015;-72
2023/03/05 10:23:13;;;;;;;44.13;16.13;;;0.70;99.90;;;;;;4388286;28;658823;-71
2023/03/05 10:26:27;;;;;;;30.53;14.03;;;0.60;99.90;;;;;;4388061;28;659073;-72
2023/03/05 10:29:35;;;;;;;40.33;16.13;;;0.70;99.90;;;;;;4399652;28;658883;-71
2023/03/05 10:32:29;;;;;;;37.13;15.80;;;0.70;99.90;;;;;;4370609;28;659069;-71
2023/03/05 10:35:30;;;;;;;35.28;14.48;;;0.70;99.90;;;;;;4403608;28;658764;-72
2023/03/05 10:38:36;;;;;;;32.10;11.50;;;0.60;99.90;;;;;;4372434;28;658843;-72
2023/03/05 10:41:27;;;;;;;47.87;18.10;;;0.50;99.90;;;;;;4394617;28;659105;-72
2023/03/05 10:44:16;;;;;;;42.70;16.67;;;0.40;99.90;;;;;;4419185;28;658905;-72
2023/03/05 10:47:11;;;;;;;37.37;17.57;;;0.40;99.90;;;;;;4393156;28;659441;-72
2023/03/05 10:49:58;;;;;;;47.23;19.17;;;0.30;99.90;;;;;;4391684;28;659493;-71
2023/03/05 10:52:47;;;;;;;43.60;17.47;;;0.30;99.90;;;;;;4396911;28;659006;-71
2023/03/05 10:55:34;;;;;;;33.42;15.43;;;0.40;99.90;;;;;;4428521;28;658554;-71
2023/03/05 10:58:22;;;;;;;33.17;13.97;;;0.10;99.90;;;;;;4399584;28;659443;-72
2023/03/05 11:01:20;;;;;;;38.73;16.20;;;0.00;99.90;;;;;;4428425;28;658740;-72
2023/03/05 11:04:25;;;;;;;29.27;14.37;;;0.00;99.90;;;;;;4395773;28;659904;-71
2023/03/05 11:07:36;;;;;;;44.47;19.30;;;-0.10;99.90;;;;;;4368846;28;658909;-72
2023/03/05 11:10:24;;;;;;;35.53;15.17;;;0.00;99.90;;;;;;4396807;28;660446;-72
2023/03/05 11:13:23;;;;;;;31.83;16.30;;;0.20;99.90;;;;;;4396764;28;659220;-71
2023/03/05 11:16:16;;;;;;;34.17;16.53;;;0.30;99.90;;;;;;4401725;28;659090;-71
2023/03/05 11:19:21;;;;;;;30.25;15.68;;;0.60;99.90;;;;;;4399082;28;659573;-72
2023/03/05 11:22:14;;;;;;;32.73;15.70;;;0.60;99.90;;;;;;4412061;28;659082;-71
2023/03/05 11:25:13;;;;;;;21.50;10.50;;;0.50;99.90;;;;;;4387403;28;659129;-72
2023/03/05 11:28:01;;;;;;;29.00;12.50;;;0.40;99.90;;;;;;4391396;28;658985;-72
2023/03/05 11:30:55;;;;;;;24.03;11.20;;;0.50;99.90;;;;;;4413848;28;659676;-71
2023/03/05 11:33:54;;;;;;;23.87;8.70;;;0.50;99.90;;;;;;4387857;28;659457;-71
2023/03/05 11:36:44;;;;;;;23.90;10.57;;;0.60;99.90;;;;;;4385046;28;657732;-72
2023/03/05 11:39:33;;;;;;;15.83;7.73;;;0.50;99.90;;;;;;4394894;28;658799;-71
2023/03/05 11:42:24;;;;;;;23.23;9.90;;;0.60;99.90;;;;;;4400970;28;657571;-72
2023/03/05 11:45:15;;;;;;;27.17;9.27;;;0.40;99.90;;;;;;4418982;28;658250;-71
2023/03/05 11:48:08;;;;;;;16.93;7.33;;;0.40;99.90;;;;;;4402899;28;658537;-72
2023/03/05 11:50:57;;;;;;;20.57;6.97;;;0.40;99.90;;;;;;4376178;28;657576;-72
2023/03/05 11:53:45;;;;;;;19.40;8.70;;;0.20;99.90;;;;;;4419976;28;657888;-72
2023/03/05 11:56:35;;;;;;;23.17;9.73;;;0.10;99.90;;;;;;4403536;28;657977;-71
2023/03/05 11:59:24;;;;;;;27.27;10.90;;;0.40;99.90;;;;;;4393190;28;657689;-72
2023/03/05 12:02:16;;;;;;;16.93;7.93;;;0.20;99.90;;;;;;4401322;28;658620;-72
2023/03/05 12:05:05;;;;;;;17.00;7.23;;;0.30;99.90;;;;;;4385803;28;658188;-71
2023/03/05 12:07:55;;;;;;;21.20;8.77;;;0.30;99.90;;;;;;4402658;28;658483;-72
2023/03/05 12:10:43;;;;;;;26.67;9.83;;;0.30;99.90;;;;;;4407948;28;658335;-72
2023/03/05 12:13:33;;;;;;;14.87;7.20;;;0.40;99.90;;;;;;4408046;28;657934;-71
2023/03/05 12:16:25;;;;;;;21.27;9.83;;;0.40;99.90;;;;;;4412010;28;658196;-72
2023/03/05 12:19:29;;;;;;;17.90;8.67;;;0.60;99.90;;;;;;4416522;28;658515;-71
2023/03/05 12:22:17;;;;;;;24.00;10.30;;;0.70;99.90;;;;;;4379735;28;658667;-72
2023/03/05 12:25:25;;;;;;;21.13;7.53;;;1.00;99.90;;;;;;4424119;28;658927;-72
2023/03/05 12:28:16;;;;;;;23.23;9.23;;;1.00;99.90;;;;;;4400587;28;657640;-71
2023/03/05 12:31:03;;;;;;;21.37;7.00;;;0.90;99.90;;;;;;4395614;28;658300;-71
2023/03/05 12:33:50;;;;;;;19.53;8.03;;;0.80;99.90;;;;;;4414589;28;657867;-72
2023/03/05 12:36:38;;;;;;;15.83;6.90;;;0.80;99.90;;;;;;4437178;28;658109;-72
2023/03/05 12:39:57;;;;;;;19.40;8.15;;;0.80;99.90;;;;;;4403444;28;657584;-71
2023/03/05 12:42:52;;;;;;;18.45;7.53;;;0.90;99.90;;;;;;4358357;28;657627;-72
2023/03/05 12:45:41;;;;;;;25.27;7.33;;;0.90;99.90;;;;;;4396013;28;657953;-71
2023/03/05 12:48:42;;;;;;;12.37;4.83;;;0.90;99.90;;;;;;4407639;28;658700;-72
2023/03/05 12:51:34;;;;;;;16.53;6.87;;;1.00;99.90;;;;;;4405166;28;658680;-72
2023/03/05 12:54:30;;;;;;;13.30;5.20;;;1.00;99.90;;;;;;4408780;28;657027;-71
2023/03/05 12:57:18;;;;;;;11.97;4.40;;;1.10;99.90;;;;;;4383890;28;658147;-73
2023/03/05 13:00:09;;;;;;;12.70;5.33;;;1.30;99.90;;;;;;4397771;28;657581;-71
2023/03/05 13:02:58;;;;;;;7.27;3.97;;;1.40;99.90;;;;;;4416663;28;658189;-71
2023/03/05 13:05:49;;;;;;;10.20;4.47;;;1.60;99.90;;;;;;4415771;28;657341;-72
2023/03/05 13:08:37;;;;;;;9.60;4.43;;;1.40;99.90;;;;;;4416148;28;658571;-71
2023/03/05 13:11:24;;;;;;;11.90;4.87;;;1.40;99.90;;;;;;4429409;28;657466;-71
2023/03/05 13:14:39;;;;;;;11.90;4.83;;;1.70;99.90;;;;;;4409729;28;657904;-72
2023/03/05 13:17:36;;;;;;;8.97;3.67;;;1.90;99.90;;;;;;4362722;28;657925;-71
2023/03/05 13:20:32;;;;;;;10.73;3.50;;;2.10;99.90;;;;;;4403356;28;656743;-72
2023/03/05 13:23:22;;;;;;;7.47;3.47;;;2.80;99.90;;;;;;4405648;28;657569;-71
2023/03/05 13:26:11;;;;;;;7.90;2.60;;;3.60;99.90;;;;;;4396052;28;656392;-72
2023/03/05 13:29:11;;;;;;;8.50;3.20;;;3.40;96.20;;;;;;4402989;28;656753;-72
2023/03/05 13:31:59;;;;;;;7.90;3.33;;;2.90;98.80;;;;;;4407030;28;656818;-72
2023/03/05 13:34:47;;;;;;;6.83;3.17;;;2.20;97.50;;;;;;4410391;28;656538;-72
2023/03/05 13:37:36;;;;;;;5.47;2.60;;;1.90;98.70;;;;;;4428895;28;657174;-73
2023/03/05 13:40:25;;;;;;;8.90;3.37;;;2.00;97.30;;;;;;4391967;28;657255;-73
2023/03/05 13:43:12;;;;;;;11.40;3.77;;;1.90;98.40;;;;;;4402788;28;657881;-73
2023/03/05 13:46:00;;;;;;;7.87;3.63;;;2.00;99.90;;;;;;4433065;28;658698;-73
2023/03/05 13:48:47;;;;;;;6.97;2.83;;;1.90;99.90;;;;;;4422054;28;657398;-73
2023/03/05 13:51:42;;;;;;;8.97;3.53;;;2.00;99.90;;;;;;4419727;28;655966;-73
2023/03/05 13:54:31;;;;;;;8.43;3.23;;;1.90;99.90;;;;;;4406928;28;656761;-73
2023/03/05 13:57:33;;;;;;;7.80;3.23;;;1.70;99.90;;;;;;4406704;28;657757;-73
2023/03/05 14:00:29;;;;;;;9.23;3.20;;;1.80;99.90;;;;;;4378852;28;656848;-72
2023/03/05 14:03:21;;;;;;;7.27;3.10;;;1.50;99.90;;;;;;4377500;28;657186;-72
2023/03/05 14:06:09;;;;;;;10.53;3.33;;;1.40;99.90;;;;;;4390774;28;657119;-72
2023/03/05 14:09:02;;;;;;;7.17;2.90;;;1.40;99.90;;;;;;4391966;28;658058;-73
2023/03/05 14:12:02;;;;;;;7.33;3.00;;;1.30;99.90;;;;;;4396566;28;656605;-73
2023/03/05 14:14:49;;;;;;;7.37;3.10;;;1.30;99.90;;;;;;4409760;28;656362;-73
2023/03/05 14:17:38;;;;;;;8.53;3.47;;;1.20;99.90;;;;;;4401074;28;656544;-73
2023/03/05 14:20:27;;;;;;;10.43;3.70;;;1.20;99.90;;;;;;4400197;28;656858;-73
2023/03/05 14:23:30;;;;;;;8.20;3.63;;;1.20;99.90;;;;;;4414783;28;657674;-72
2023/03/05 14:26:27;;;;;;;8.73;3.97;;;1.30;99.90;;;;;;4391266;28;656713;-73